Time;durP1;ratioP1;P1;durP2;ratioP2;P2;SDS_P1;SDS_P2;PMS_P1;PMS_P2;Temp;Humidity;BMP_temperature;BMP_pressure;BME280_temperature;BME280_humidity;BME280_pressure;Samples;Min_cycle;Max_cycle;Signal;HPM_P1;HPM_P2
2024/03/05 00:02:23;;;;;;;9.40;4.35;;;6.30;99.90;;;;;;5053596;28;20033;-55
2024/03/05 00:04:49;;;;;;;18.92;4.82;;;6.30;99.90;;;;;;5053590;28;20029;-55
2024/03/05 00:07:15;;;;;;;7.72;4.60;;;6.30;99.90;;;;;;5053759;28;20028;-56
2024/03/05 00:09:41;;;;;;;6.82;4.07;;;6.30;99.90;;;;;;5052493;28;20052;-54
2024/03/05 00:12:07;;;;;;;8.98;4.07;;;6.30;99.90;;;;;;5053716;28;20506;-54
2024/03/05 00:14:33;;;;;;;10.63;5.30;;;6.30;99.90;;;;;;5053437;28;20029;-55
2024/03/05 00:16:58;;;;;;;9.52;5.30;;;6.30;99.90;;;;;;5052750;28;20045;-54
2024/03/05 00:19:27;;;;;;;8.45;4.43;;;6.20;99.90;;;;;;5049209;28;20029;-53
2024/03/05 00:21:53;;;;;;;10.25;5.13;;;6.20;99.90;;;;;;5033392;28;20030;-55
2024/03/05 00:24:18;;;;;;;12.13;5.25;;;6.20;99.90;;;;;;5031437;28;20036;-54
2024/03/05 00:26:44;;;;;;;12.13;6.07;;;6.20;99.90;;;;;;5033250;28;20100;-58
2024/03/05 00:29:10;;;;;;;8.73;4.60;;;6.20;99.90;;;;;;5032008;28;20112;-55
2024/03/05 00:31:35;;;;;;;8.55;4.25;;;6.20;99.90;;;;;;5032975;28;20149;-53
2024/03/05 00:34:03;;;;;;;10.38;5.72;;;6.10;99.90;;;;;;5033684;28;20057;-59
2024/03/05 00:36:28;;;;;;;7.60;4.00;;;6.10;99.90;;;;;;5033142;28;20055;-53
2024/03/05 00:38:55;;;;;;;12.70;5.63;;;6.10;99.90;;;;;;5033309;28;20021;-53
2024/03/05 00:41:22;;;;;;;16.10;5.85;;;6.10;99.90;;;;;;5033349;28;20040;-40
2024/03/05 00:43:48;;;;;;;9.60;4.93;;;6.10;99.90;;;;;;5034073;28;20096;-39
2024/03/05 00:46:14;;;;;;;10.75;4.97;;;6.10;99.90;;;;;;5053068;28;20059;-41
2024/03/05 00:48:39;;;;;;;13.05;4.82;;;6.10;99.90;;;;;;5044942;28;20390;-40
2024/03/05 00:51:06;;;;;;;10.35;4.85;;;6.10;99.90;;;;;;5035782;28;20036;-39
2024/03/05 00:53:32;;;;;;;10.02;5.78;;;6.10;99.90;;;;;;5051386;28;20074;-40
2024/03/05 00:55:58;;;;;;;8.82;5.70;;;6.00;99.90;;;;;;5052780;28;20032;-40
2024/03/05 00:58:23;;;;;;;12.43;4.90;;;6.00;99.90;;;;;;5051720;28;20396;-39
2024/03/05 01:00:49;;;;;;;8.27;5.25;;;6.00;99.90;;;;;;5043100;28;20421;-39
2024/03/05 01:03:14;;;;;;;9.55;4.68;;;6.00;99.90;;;;;;5032719;28;20029;-39
2024/03/05 01:05:41;;;;;;;10.02;5.25;;;6.00;99.90;;;;;;5031477;28;20108;-43
2024/03/05 01:08:06;;;;;;;13.77;5.45;;;6.00;99.90;;;;;;5034489;28;20033;-40
2024/03/05 01:10:32;;;;;;;9.35;6.00;;;6.00;99.90;;;;;;5052504;28;20547;-39
2024/03/05 01:12:58;;;;;;;9.57;5.65;;;6.00;99.90;;;;;;5051327;28;20485;-38
2024/03/05 01:15:24;;;;;;;7.10;4.28;;;5.90;99.90;;;;;;5052505;28;20564;-40
2024/03/05 01:17:50;;;;;;;8.02;4.80;;;5.90;99.90;;;;;;5052785;28;20021;-39
2024/03/05 01:20:16;;;;;;;14.25;5.22;;;5.90;99.90;;;;;;5052543;28;20144;-46
2024/03/05 01:22:48;;;;;;;8.93;4.97;;;5.90;99.90;;;;;;5052452;28;20452;-39
2024/03/05 01:25:14;;;;;;;16.92;5.00;;;5.90;99.90;;;;;;5050548;28;20121;-39
2024/03/05 01:27:39;;;;;;;10.90;5.50;;;5.90;99.90;;;;;;5052457;28;20461;-40
2024/03/05 01:30:10;;;;;;;13.57;6.30;;;5.90;99.90;;;;;;5052360;28;20124;-42
2024/03/05 01:32:40;;;;;;;14.55;6.25;;;5.90;99.90;;;;;;5052338;28;20502;-43
2024/03/05 01:35:10;;;;;;;11.10;5.35;;;5.90;99.90;;;;;;5052315;28;20441;-40
2024/03/05 01:37:39;;;;;;;12.95;6.10;;;5.90;99.90;;;;;;5056066;28;20504;-39
2024/03/05 01:40:06;;;;;;;12.38;6.53;;;5.90;99.90;;;;;;5055171;28;20033;-44
2024/03/05 01:42:32;;;;;;;15.90;6.15;;;6.00;99.90;;;;;;5055914;28;20025;-39
2024/03/05 01:44:58;;;;;;;12.90;6.03;;;5.90;99.90;;;;;;5056136;28;20063;-39
2024/03/05 01:47:27;;;;;;;10.75;5.95;;;5.90;99.90;;;;;;5044752;28;20466;-39
2024/03/05 01:49:56;;;;;;;14.48;5.90;;;5.90;99.90;;;;;;5036185;28;20041;-55
2024/03/05 01:52:22;;;;;;;9.52;6.38;;;6.00;99.90;;;;;;5034926;28;20026;-56
2024/03/05 01:54:50;;;;;;;13.65;6.68;;;6.00;99.90;;;;;;5048502;28;20033;-54
2024/03/05 01:57:16;;;;;;;12.75;6.10;;;6.00;99.90;;;;;;5038114;28;20114;-56
2024/03/05 01:59:42;;;;;;;13.75;7.10;;;6.00;99.90;;;;;;5047363;28;20030;-55
2024/03/05 02:02:10;;;;;;;16.73;6.20;;;6.00;99.90;;;;;;5035937;28;20463;-55
2024/03/05 02:04:38;;;;;;;13.77;6.07;;;6.00;99.90;;;;;;5035057;28;20034;-55
2024/03/05 02:07:09;;;;;;;;;;;5.90;99.90;;;;;;5034678;28;20095;-55
2024/03/05 02:09:36;;;;;;;16.10;6.57;;;5.90;99.90;;;;;;5036011;28;20285;-55
2024/03/05 02:12:02;;;;;;;8.52;4.38;;;5.90;99.90;;;;;;5034502;28;20025;-54
2024/03/05 02:14:28;;;;;;;16.85;6.95;;;5.80;99.90;;;;;;5035757;28;20422;-39
2024/03/05 02:16:58;;;;;;;16.52;7.47;;;5.80;99.90;;;;;;5045584;28;20064;-39
2024/03/05 02:19:24;;;;;;;18.05;7.43;;;5.80;99.90;;;;;;5055664;28;20517;-40
2024/03/05 02:22:06;;;;;;;20.00;6.82;;;5.80;99.90;;;;;;5055888;28;20021;-40
2024/03/05 02:24:31;;;;;;;13.63;6.88;;;5.80;99.90;;;;;;5055766;28;20036;-39
2024/03/05 02:27:00;;;;;;;17.75;7.30;;;5.70;99.90;;;;;;5055722;28;20487;-39
2024/03/05 02:29:27;;;;;;;21.25;7.93;;;5.70;99.90;;;;;;5055624;28;20056;-39
2024/03/05 02:31:52;;;;;;;18.05;7.47;;;5.70;99.90;;;;;;5055182;28;20090;-39
2024/03/05 02:34:18;;;;;;;17.40;7.95;;;5.70;99.90;;;;;;5054526;28;20025;-39
2024/03/05 02:36:43;;;;;;;16.05;7.47;;;5.70;99.90;;;;;;5055318;28;20107;-39
2024/03/05 02:39:09;;;;;;;18.42;7.55;;;5.70;99.90;;;;;;5055538;28;20025;-38
2024/03/05 02:41:36;;;;;;;16.02;7.53;;;5.70;99.90;;;;;;5055147;28;20474;-42
2024/03/05 02:44:02;;;;;;;15.30;7.30;;;5.70;99.90;;;;;;5035270;28;20029;-39
2024/03/05 02:46:28;;;;;;;19.98;7.72;;;5.60;99.90;;;;;;5033345;28;20034;-39
2024/03/05 02:48:54;;;;;;;14.23;6.97;;;5.60;99.90;;;;;;5034927;28;20342;-38
2024/03/05 02:51:19;;;;;;;18.10;9.32;;;5.60;99.90;;;;;;5035640;28;20104;-38
2024/03/05 02:53:45;;;;;;;18.83;8.32;;;5.60;99.90;;;;;;5035311;28;20033;-43
2024/03/05 02:56:12;;;;;;;24.35;7.95;;;5.60;99.90;;;;;;5033698;28;20026;-41
2024/03/05 02:58:39;;;;;;;23.15;8.48;;;5.60;99.90;;;;;;5035233;28;20371;-42
2024/03/05 03:01:07;;;;;;;17.52;7.70;;;5.60;99.90;;;;;;5046571;28;20512;-52
2024/03/05 03:03:36;;;;;;;23.67;8.50;;;5.60;99.90;;;;;;5053518;28;20028;-55
2024/03/05 03:06:03;;;;;;;19.45;8.32;;;5.60;99.90;;;;;;5054747;28;20481;-54
2024/03/05 03:08:29;;;;;;;20.25;8.73;;;5.60;99.90;;;;;;5039752;28;20025;-54
2024/03/05 03:10:57;;;;;;;25.30;9.43;;;5.70;99.90;;;;;;5034641;28;20486;-54
2024/03/05 03:13:23;;;;;;;18.42;8.43;;;5.70;99.90;;;;;;5033499;28;20022;-56
2024/03/05 03:15:50;;;;;;;19.33;8.10;;;5.80;99.90;;;;;;5034916;28;20036;-55
2024/03/05 03:18:15;;;;;;;20.13;9.13;;;5.80;99.90;;;;;;5034583;28;20061;-60
2024/03/05 03:20:41;;;;;;;19.08;7.93;;;5.80;99.90;;;;;;5034345;28;20045;-55
2024/03/05 03:23:07;;;;;;;23.77;8.45;;;5.80;99.90;;;;;;5034500;28;20104;-55
2024/03/05 03:25:32;;;;;;;22.73;8.98;;;5.80;99.90;;;;;;5034968;28;20116;-55
2024/03/05 03:27:58;;;;;;;25.55;9.40;;;5.80;99.90;;;;;;5034411;28;20037;-56
2024/03/05 03:30:26;;;;;;;21.48;9.13;;;5.80;99.90;;;;;;5033978;28;20021;-55
2024/03/05 03:32:51;;;;;;;20.00;9.32;;;5.80;99.90;;;;;;5033830;28;20116;-55
2024/03/05 03:35:18;;;;;;;18.25;8.75;;;5.80;99.90;;;;;;5033911;28;20116;-54
2024/03/05 03:37:44;;;;;;;19.42;9.27;;;5.80;99.90;;;;;;5034372;28;20475;-55
2024/03/05 03:40:20;;;;;;;25.10;9.27;;;5.90;99.90;;;;;;5032866;28;20030;-56
2024/03/05 03:42:46;;;;;;;24.75;9.48;;;5.90;99.90;;;;;;5044343;28;20520;-55
2024/03/05 03:45:16;;;;;;;20.13;8.23;;;5.90;99.90;;;;;;5053882;28;20021;-52
2024/03/05 03:47:42;;;;;;;23.73;10.00;;;5.90;99.90;;;;;;5052676;28;20039;-54
2024/03/05 03:50:12;;;;;;;24.75;8.25;;;5.90;99.90;;;;;;5052484;28;20079;-54
2024/03/05 03:52:40;;;;;;;30.42;9.38;;;6.00;99.90;;;;;;5054150;28;20457;-55
2024/03/05 03:55:05;;;;;;;21.48;10.20;;;6.10;99.90;;;;;;5052694;28;20074;-55
2024/03/05 03:57:32;;;;;;;21.88;8.95;;;6.10;99.90;;;;;;5053787;28;20025;-55
2024/03/05 04:00:00;;;;;;;20.92;8.95;;;6.10;99.90;;;;;;5048580;28;20029;-54
2024/03/05 04:02:25;;;;;;;24.73;9.18;;;6.10;99.90;;;;;;5034023;28;20025;-55
2024/03/05 04:04:51;;;;;;;20.30;8.30;;;6.10;99.90;;;;;;5033712;28;20448;-54
2024/03/05 04:07:18;;;;;;;21.90;8.50;;;6.10;99.90;;;;;;5033876;28;20057;-55
2024/03/05 04:09:44;;;;;;;22.85;9.38;;;6.10;99.90;;;;;;5033855;28;20029;-48
2024/03/05 04:12:12;;;;;;;23.30;10.35;;;6.10;99.90;;;;;;5033624;28;20478;-40
2024/03/05 04:14:38;;;;;;;23.38;9.52;;;6.10;99.90;;;;;;5033750;28;20476;-40
2024/03/05 04:17:04;;;;;;;18.40;8.85;;;6.10;99.90;;;;;;5053005;28;20466;-40
2024/03/05 04:19:30;;;;;;;21.77;9.57;;;6.10;99.90;;;;;;5053909;28;20110;-42
2024/03/05 04:21:56;;;;;;;22.25;9.57;;;6.20;99.90;;;;;;5053306;28;20488;-41
2024/03/05 04:24:22;;;;;;;23.98;10.43;;;6.20;99.90;;;;;;5053263;28;20056;-40
2024/03/05 04:26:50;;;;;;;23.05;10.25;;;6.20;99.90;;;;;;5053203;28;20028;-39
2024/03/05 04:29:19;;;;;;;23.45;10.02;;;6.20;99.90;;;;;;5053061;28;20156;-39
2024/03/05 04:32:04;;;;;;;20.88;8.85;;;6.30;99.90;;;;;;5052307;28;20514;-39
2024/03/05 04:34:31;;;;;;;24.67;8.55;;;6.30;99.90;;;;;;5053121;28;20096;-39
2024/03/05 04:36:56;;;;;;;24.35;9.07;;;6.40;99.90;;;;;;5053292;28;20021;-40
2024/03/05 04:39:22;;;;;;;22.67;9.20;;;6.30;99.90;;;;;;5039363;28;20120;-38
2024/03/05 04:41:48;;;;;;;24.52;11.10;;;6.40;99.90;;;;;;5034433;28;20401;-39
2024/03/05 04:44:14;;;;;;;29.80;9.80;;;6.50;99.90;;;;;;5053213;28;20337;-39
2024/03/05 04:46:40;;;;;;;22.67;9.75;;;6.50;99.90;;;;;;5033105;28;20109;-39
2024/03/05 04:49:06;;;;;;;31.48;10.88;;;6.40;99.90;;;;;;5033398;28;20021;-41
2024/03/05 04:51:32;;;;;;;21.63;8.45;;;6.50;99.90;;;;;;5031689;28;20068;-39
2024/03/05 04:53:57;;;;;;;28.42;9.70;;;6.40;99.90;;;;;;5033190;28;20101;-41
2024/03/05 04:56:23;;;;;;;22.33;8.65;;;6.50;99.90;;;;;;5032843;28;20017;-39
2024/03/05 04:58:49;;;;;;;19.67;9.13;;;6.40;99.90;;;;;;5032812;28;20041;-40
2024/03/05 05:01:14;;;;;;;24.00;9.10;;;6.40;99.90;;;;;;5032810;28;20026;-55
2024/03/05 05:03:42;;;;;;;26.90;10.52;;;6.50;99.90;;;;;;5032759;28;20025;-55
2024/03/05 05:06:08;;;;;;;23.42;10.82;;;6.50;99.90;;;;;;5033503;28;20300;-57
2024/03/05 05:08:35;;;;;;;27.20;10.02;;;6.50;99.90;;;;;;5032973;28;20523;-55
2024/03/05 05:11:01;;;;;;;26.25;9.95;;;6.60;99.90;;;;;;5032367;28;20032;-54
2024/03/05 05:13:27;;;;;;;24.73;9.20;;;6.60;99.90;;;;;;5032644;28;20485;-52
2024/03/05 05:15:54;;;;;;;28.63;10.52;;;6.70;99.90;;;;;;5032938;28;20021;-55
2024/03/05 05:18:20;;;;;;;19.10;7.43;;;6.70;99.90;;;;;;5032938;28;20575;-54
2024/03/05 05:20:46;;;;;;;20.70;9.57;;;6.80;99.90;;;;;;5032664;28;20037;-55
2024/03/05 05:23:12;;;;;;;25.67;9.75;;;6.80;99.90;;;;;;5033372;28;20029;-54
2024/03/05 05:25:37;;;;;;;27.73;11.30;;;6.70;99.90;;;;;;5032816;28;20029;-54
2024/03/05 05:28:07;;;;;;;23.50;9.70;;;6.70;99.90;;;;;;5032549;28;20045;-55
2024/03/05 05:30:33;;;;;;;28.35;11.02;;;6.80;99.90;;;;;;5032418;28;20478;-55
2024/03/05 05:32:58;;;;;;;28.40;10.70;;;6.80;99.90;;;;;;5032355;28;20041;-54
2024/03/05 05:35:24;;;;;;;26.27;11.32;;;6.90;99.90;;;;;;5032423;28;20394;-55
2024/03/05 05:37:49;;;;;;;31.30;10.65;;;6.90;99.90;;;;;;5050424;28;20496;-55
2024/03/05 05:40:18;;;;;;;33.08;12.02;;;7.00;99.90;;;;;;5047516;28;20026;-55
2024/03/05 05:42:48;;;;;;;30.23;11.98;;;7.00;99.90;;;;;;5041722;28;20025;-55
2024/03/05 05:45:14;;;;;;;26.27;10.25;;;7.10;99.90;;;;;;5043941;28;20025;-52
2024/03/05 05:47:48;;;;;;;27.88;10.63;;;7.10;99.90;;;;;;5032322;28;20086;-54
2024/03/05 05:50:17;;;;;;;37.10;11.50;;;7.10;99.90;;;;;;5032181;28;20045;-55
2024/03/05 05:52:55;;;;;;;34.00;12.27;;;7.10;99.90;;;;;;5032307;28;20112;-54
2024/03/05 05:55:24;;;;;;;23.85;9.82;;;7.20;99.90;;;;;;5032371;28;20036;-39
2024/03/05 05:57:51;;;;;;;28.35;11.60;;;7.20;99.90;;;;;;5041564;28;20385;-51
2024/03/05 06:00:38;;;;;;;23.35;9.98;;;7.20;99.90;;;;;;5052135;28;20172;-39
2024/03/05 06:03:07;;;;;;;25.08;10.48;;;7.20;99.90;;;;;;5052120;28;20037;-39
2024/03/05 06:05:36;;;;;;;27.23;11.40;;;7.20;99.90;;;;;;5052372;28;20036;-39
2024/03/05 06:08:03;;;;;;;32.58;11.45;;;7.20;99.90;;;;;;5052326;28;20028;-39
2024/03/05 06:10:29;;;;;;;30.67;12.00;;;7.30;99.90;;;;;;5051925;28;20035;-40
2024/03/05 06:12:55;;;;;;;34.67;12.98;;;7.30;99.90;;;;;;5051931;28;20264;-39
2024/03/05 06:15:21;;;;;;;27.80;11.70;;;7.40;99.90;;;;;;5051444;28;20117;-54
2024/03/05 06:17:47;;;;;;;28.67;12.75;;;7.40;99.90;;;;;;5052251;28;20025;-55
2024/03/05 06:20:14;;;;;;;36.70;11.55;;;7.40;99.90;;;;;;5052201;28;20473;-54
2024/03/05 06:22:41;;;;;;;26.85;11.60;;;7.40;99.90;;;;;;5053765;28;20033;-55
2024/03/05 06:25:13;;;;;;;29.33;11.32;;;7.40;99.90;;;;;;5055527;28;20527;-57
2024/03/05 06:27:40;;;;;;;28.90;12.07;;;7.40;99.90;;;;;;5055542;28;20575;-62
2024/03/05 06:30:22;;;;;;;28.85;12.07;;;7.30;99.90;;;;;;5055333;28;20071;-53
2024/03/05 06:32:49;;;;;;;34.47;13.57;;;7.30;99.90;;;;;;5054427;28;20068;-60
2024/03/05 06:35:16;;;;;;;29.75;11.73;;;7.40;99.90;;;;;;5043717;28;20026;-55
2024/03/05 06:37:44;;;;;;;37.58;11.43;;;7.40;99.90;;;;;;5035600;28;20540;-56
2024/03/05 06:40:11;;;;;;;29.88;11.80;;;7.40;99.90;;;;;;5035304;28;20536;-55
2024/03/05 06:42:41;;;;;;;30.00;11.23;;;7.40;99.90;;;;;;5043667;28;20029;-55
2024/03/05 06:45:08;;;;;;;37.67;13.30;;;7.40;99.90;;;;;;5046519;28;20037;-55
2024/03/05 06:47:54;;;;;;;28.25;11.43;;;7.40;99.90;;;;;;5033932;28;20597;-54
2024/03/05 06:50:23;;;;;;;33.20;12.70;;;7.40;99.90;;;;;;5035286;28;20554;-56
2024/03/05 06:58:20;;;;;;;40.97;14.25;;;7.50;99.90;;;;;;5035265;28;20036;-55
2024/03/05 07:00:46;;;;;;;38.40;14.40;;;7.60;99.90;;;;;;5035020;28;20033;-57
2024/03/05 07:03:13;;;;;;;39.47;13.55;;;7.60;99.90;;;;;;5034924;28;20375;-55
2024/03/05 07:05:39;;;;;;;42.13;14.52;;;7.70;99.90;;;;;;5041272;28;20021;-55
2024/03/05 07:08:07;;;;;;;39.90;14.43;;;7.70;99.90;;;;;;5054652;28;20021;-52
2024/03/05 07:10:37;;;;;;;37.53;13.85;;;7.70;99.90;;;;;;5054579;28;20032;-55
2024/03/05 07:13:03;;;;;;;40.42;14.15;;;7.70;99.90;;;;;;5054615;28;20017;-52
2024/03/05 07:15:29;;;;;;;50.97;15.98;;;7.80;99.90;;;;;;5054542;28;20385;-52
2024/03/05 07:17:56;;;;;;;45.97;15.65;;;7.90;99.90;;;;;;5054438;28;20474;-52
2024/03/05 07:20:24;;;;;;;48.72;17.58;;;8.00;99.90;;;;;;5054404;28;20057;-54
2024/03/05 07:22:52;;;;;;;47.08;18.20;;;8.00;99.90;;;;;;5044986;28;20389;-54
2024/03/05 07:25:18;;;;;;;45.45;15.57;;;8.00;99.90;;;;;;5034622;28;20482;-56
2024/03/05 07:27:46;;;;;;;47.33;15.10;;;8.00;99.90;;;;;;5034448;28;20080;-54
2024/03/05 07:30:15;;;;;;;;;;;8.00;99.90;;;;;;5045272;28;20060;-52
2024/03/05 07:32:43;;;;;;;38.33;15.90;;;7.90;99.90;;;;;;5054015;28;19948;-56
2024/03/05 07:35:09;;;;;;;45.90;15.90;;;7.90;99.90;;;;;;5054362;28;20029;-55
2024/03/05 07:37:35;;;;;;;45.67;16.05;;;7.90;99.90;;;;;;5054139;28;20355;-55
2024/03/05 07:40:09;;;;;;;42.75;16.55;;;7.90;99.90;;;;;;5042975;28;20542;-55
2024/03/05 07:42:39;;;;;;;46.88;15.60;;;8.00;99.90;;;;;;5034458;28;20390;-45
2024/03/05 07:45:07;;;;;;;46.38;16.67;;;8.00;99.90;;;;;;5033992;28;20025;-41
2024/03/05 07:47:33;;;;;;;43.72;17.60;;;8.00;99.90;;;;;;5032823;28;20022;-37
2024/03/05 07:49:59;;;;;;;41.13;15.98;;;8.00;99.90;;;;;;5033922;28;20371;-38
2024/03/05 07:52:25;;;;;;;54.40;16.98;;;8.00;99.90;;;;;;5033938;28;20051;-39
2024/03/05 07:54:50;;;;;;;56.65;17.95;;;8.10;99.90;;;;;;5033951;28;20501;-39
2024/03/05 07:57:16;;;;;;;49.83;16.17;;;8.10;99.90;;;;;;5046637;28;20036;-37
2024/03/05 07:59:42;;;;;;;51.08;17.13;;;8.10;99.90;;;;;;5053660;28;20390;-38
2024/03/05 08:02:08;;;;;;;50.50;17.92;;;8.10;99.90;;;;;;5053585;28;20155;-37
2024/03/05 08:04:34;;;;;;;57.88;17.75;;;8.10;99.90;;;;;;5053565;28;20535;-38
2024/03/05 08:06:59;;;;;;;53.17;18.00;;;8.10;99.90;;;;;;5052286;28;20119;-38
2024/03/05 08:09:25;;;;;;;49.50;16.77;;;8.10;99.90;;;;;;5053486;28;20492;-41
2024/03/05 08:11:51;;;;;;;47.17;16.98;;;8.00;99.90;;;;;;5053358;28;20067;-38
2024/03/05 08:14:16;;;;;;;51.53;18.35;;;8.10;99.90;;;;;;5052623;28;20433;-39
2024/03/05 08:16:42;;;;;;;48.28;18.73;;;8.10;99.90;;;;;;5053357;28;20063;-38
2024/03/05 08:19:07;;;;;;;59.47;19.13;;;8.10;99.90;;;;;;5053327;28;20087;-38
2024/03/05 08:21:34;;;;;;;48.75;17.38;;;8.20;99.90;;;;;;5053220;28;20021;-39
2024/03/05 08:24:02;;;;;;;60.63;20.38;;;8.20;99.90;;;;;;5053305;28;20465;-37
2024/03/05 08:26:28;;;;;;;48.47;18.13;;;8.10;99.90;;;;;;5051974;28;20029;-37
2024/03/05 08:28:54;;;;;;;49.38;18.40;;;8.20;99.90;;;;;;5042056;28;20088;-38
2024/03/05 08:31:19;;;;;;;46.22;17.23;;;8.20;99.90;;;;;;5033667;28;20456;-38
2024/03/05 08:33:45;;;;;;;48.67;17.23;;;8.10;99.90;;;;;;5046842;28;20120;-37
2024/03/05 08:36:11;;;;;;;50.08;17.88;;;8.20;99.90;;;;;;5047621;28;20420;-37
2024/03/05 08:38:37;;;;;;;55.30;18.85;;;8.20;99.90;;;;;;5035672;28;20504;-37
2024/03/05 08:41:02;;;;;;;46.75;16.60;;;8.30;99.90;;;;;;5036811;28;20029;-38
2024/03/05 08:43:30;;;;;;;57.25;18.30;;;8.20;99.90;;;;;;5052911;28;20439;-38
2024/03/05 08:45:56;;;;;;;54.10;17.65;;;8.30;99.90;;;;;;5038556;28;20034;-37
2024/03/05 08:48:22;;;;;;;44.40;16.52;;;8.30;99.90;;;;;;5033438;28;20025;-47
2024/03/05 08:50:47;;;;;;;52.50;18.67;;;8.30;99.90;;;;;;5047787;28;20095;-37
2024/03/05 08:53:14;;;;;;;43.35;17.58;;;8.20;99.90;;;;;;5051620;28;20029;-37
2024/03/05 08:55:39;;;;;;;49.40;17.80;;;8.20;99.90;;;;;;5043734;28;20083;-39
2024/03/05 08:58:05;;;;;;;45.08;16.63;;;8.20;99.90;;;;;;5032754;28;20021;-38
2024/03/05 09:00:33;;;;;;;45.10;17.17;;;8.20;99.90;;;;;;5031892;28;20371;-38
2024/03/05 09:02:59;;;;;;;49.20;16.75;;;8.20;99.90;;;;;;5032513;28;20034;-38
2024/03/05 09:05:24;;;;;;;52.63;17.67;;;8.20;99.90;;;;;;5032753;28;20047;-54
2024/03/05 09:07:50;;;;;;;48.55;17.40;;;8.30;99.90;;;;;;5031815;28;20033;-54
2024/03/05 09:10:17;;;;;;;47.95;18.25;;;8.30;99.90;;;;;;5036205;28;20052;-56
2024/03/05 09:12:44;;;;;;;43.10;17.80;;;8.30;99.90;;;;;;5052559;28;20029;-53
2024/03/05 09:15:10;;;;;;;37.97;15.60;;;8.30;99.90;;;;;;5043831;28;20037;-55
2024/03/05 09:17:37;;;;;;;;;;;8.30;99.90;;;;;;5033411;28;20517;-55
2024/03/05 09:20:13;;;;;;;46.75;17.08;;;8.40;99.90;;;;;;5032913;28;19988;-51
2024/03/05 09:22:47;;;;;;;53.65;18.42;;;8.40;99.90;;;;;;5032044;28;20037;-53
2024/03/05 09:25:13;;;;;;;53.63;18.40;;;8.40;99.90;;;;;;5031741;28;20443;-54
2024/03/05 09:27:40;;;;;;;50.67;18.20;;;8.50;99.90;;;;;;5032442;28;20056;-54
2024/03/05 09:30:08;;;;;;;48.40;18.27;;;8.50;99.90;;;;;;5032264;28;20025;-53
2024/03/05 09:32:35;;;;;;;46.40;19.02;;;8.50;99.90;;;;;;5032217;28;20042;-54
2024/03/05 09:35:00;;;;;;;44.45;17.73;;;8.60;99.90;;;;;;5032526;28;20033;-56
2024/03/05 09:37:28;;;;;;;52.30;19.75;;;8.60;99.90;;;;;;5032755;28;20052;-52
2024/03/05 09:39:54;;;;;;;46.30;17.40;;;8.60;99.90;;;;;;5050148;28;20021;-53
2024/03/05 09:42:21;;;;;;;52.40;18.58;;;8.60;99.90;;;;;;5052323;28;20394;-58
2024/03/05 09:44:50;;;;;;;47.67;18.77;;;8.60;99.90;;;;;;5050255;28;20119;-55
2024/03/05 09:47:17;;;;;;;47.97;17.42;;;8.60;99.90;;;;;;5052547;28;20501;-55
2024/03/05 09:49:46;;;;;;;40.70;17.58;;;8.60;99.90;;;;;;5050851;28;20501;-51
2024/03/05 09:52:13;;;;;;;47.63;19.95;;;8.70;99.90;;;;;;5052290;28;20529;-54
2024/03/05 09:54:39;;;;;;;41.50;17.35;;;8.70;99.90;;;;;;5051984;28;20021;-53
2024/03/05 09:57:06;;;;;;;54.67;18.42;;;8.70;99.90;;;;;;5052613;28;20025;-59
2024/03/05 09:59:31;;;;;;;39.33;17.20;;;8.70;99.90;;;;;;5056062;28;20055;-53
2024/03/05 10:01:57;;;;;;;47.33;18.55;;;8.70;99.90;;;;;;5056354;28;20037;-45
2024/03/05 10:04:26;;;;;;;45.05;17.60;;;8.70;99.90;;;;;;5055866;28;20109;-40
2024/03/05 10:06:52;;;;;;;46.45;19.27;;;8.70;99.90;;;;;;5056127;28;20029;-40
2024/03/05 10:09:18;;;;;;;50.75;17.65;;;8.70;99.90;;;;;;5055821;28;20105;-38
2024/03/05 10:11:45;;;;;;;46.42;18.77;;;8.80;99.90;;;;;;5055000;28;20028;-41
2024/03/05 10:14:11;;;;;;;42.15;18.17;;;8.80;99.90;;;;;;5055965;28;20470;-40
2024/03/05 10:16:40;;;;;;;41.92;18.08;;;8.80;99.90;;;;;;5055744;28;20094;-38
2024/03/05 10:19:13;;;;;;;47.58;18.83;;;8.80;99.90;;;;;;5055655;28;20032;-42
2024/03/05 10:21:39;;;;;;;44.30;17.65;;;8.90;99.90;;;;;;5055988;28;20477;-39
2024/03/05 10:24:05;;;;;;;42.33;17.85;;;8.90;99.90;;;;;;5056117;28;20048;-40
2024/03/05 10:26:32;;;;;;;54.20;18.30;;;8.90;99.90;;;;;;5055543;28;20021;-41
2024/03/05 10:29:08;;;;;;;46.50;18.95;;;8.90;99.90;;;;;;5054689;28;20744;-42
2024/03/05 10:31:39;;;;;;;50.42;17.75;;;8.90;99.90;;;;;;5055532;28;20125;-42
2024/03/05 10:34:08;;;;;;;52.25;20.48;;;9.00;99.90;;;;;;5055673;28;20501;-41
2024/03/05 10:36:35;;;;;;;41.58;17.33;;;9.10;99.90;;;;;;5055331;28;20017;-39
2024/03/05 10:39:02;;;;;;;63.63;23.40;;;9.20;99.90;;;;;;5054111;28;20483;-39
2024/03/05 10:41:37;;;;;;;45.50;20.13;;;9.30;99.90;;;;;;5055148;28;20017;-38
2024/03/05 10:44:05;;;;;;;45.95;17.95;;;9.30;99.90;;;;;;5055480;28;20503;-38
2024/03/05 10:46:32;;;;;;;43.40;17.08;;;9.40;99.90;;;;;;5041082;28;20017;-39
2024/03/05 10:48:59;;;;;;;36.80;16.90;;;9.40;99.90;;;;;;5035238;28;20034;-41
2024/03/05 10:51:29;;;;;;;41.33;17.17;;;9.50;99.90;;;;;;5035186;28;20458;-39
2024/03/05 10:53:59;;;;;;;42.25;17.30;;;9.50;99.90;;;;;;5033834;28;20022;-42
2024/03/05 10:56:25;;;;;;;40.08;17.35;;;9.50;99.90;;;;;;5035058;28;20024;-41
2024/03/05 11:01:46;;;;;;;32.33;14.65;;;9.50;99.90;;;;;;5024609;28;20425;-43
2024/03/05 11:04:19;;;;;;;38.22;16.65;;;9.50;99.90;;;;;;5046837;28;20362;-38
2024/03/05 11:06:47;;;;;;;34.70;15.95;;;9.50;99.90;;;;;;5055153;28;20470;-38
2024/03/05 11:09:21;;;;;;;33.13;14.80;;;9.60;99.90;;;;;;5054215;28;20025;-37
2024/03/05 11:11:58;;;;;;;39.47;16.27;;;9.70;99.90;;;;;;5055094;28;20028;-53
2024/03/05 11:14:26;;;;;;;39.57;16.50;;;9.80;99.90;;;;;;5054741;28;20078;-57
2024/03/05 11:17:09;;;;;;;37.15;16.48;;;9.80;99.90;;;;;;5054618;28;20024;-52
2024/03/05 11:19:38;;;;;;;37.85;15.65;;;9.90;99.90;;;;;;5054524;28;20029;-55
2024/03/05 11:22:24;;;;;;;37.25;16.33;;;10.00;99.90;;;;;;5034990;28;20021;-56
2024/03/05 11:25:01;;;;;;;37.40;15.10;;;10.00;99.90;;;;;;5034483;28;20545;-56
2024/03/05 11:27:29;;;;;;;37.70;15.13;;;10.10;99.90;;;;;;5034741;28;20367;-53
2024/03/05 11:30:31;;;;;;;38.65;16.50;;;10.00;99.90;;;;;;5032944;28;20053;-53
2024/03/05 11:33:08;;;;;;;35.65;15.40;;;10.00;99.90;;;;;;5034193;28;20519;-53
2024/03/05 11:35:43;;;;;;;43.00;16.15;;;10.00;99.90;;;;;;5034633;28;20029;-54
2024/03/05 11:38:13;;;;;;;34.78;15.27;;;9.90;99.90;;;;;;5034451;28;20056;-52
2024/03/05 11:40:40;;;;;;;41.38;15.10;;;9.90;99.90;;;;;;5034428;28;20025;-54
2024/03/05 11:43:07;;;;;;;38.78;15.02;;;9.90;99.90;;;;;;5034129;28;20033;-55
2024/03/05 11:45:48;;;;;;;32.40;13.40;;;10.00;99.90;;;;;;5034174;28;20506;-54
2024/03/05 11:48:19;;;;;;;34.22;13.65;;;9.90;99.90;;;;;;5034254;28;20104;-52
2024/03/05 11:50:46;;;;;;;29.95;13.27;;;9.90;99.90;;;;;;5033863;28;20087;-54
2024/03/05 11:53:12;;;;;;;30.63;13.40;;;9.90;99.90;;;;;;5034169;28;20026;-51
2024/03/05 11:55:37;;;;;;;32.03;15.70;;;9.80;99.90;;;;;;5048352;28;20493;-53
2024/03/05 11:58:04;;;;;;;34.22;14.10;;;9.90;99.90;;;;;;5053825;28;20061;-54
2024/03/05 12:00:30;;;;;;;36.63;14.70;;;9.90;99.90;;;;;;5053895;28;20104;-54
2024/03/05 12:02:56;;;;;;;31.77;14.30;;;9.90;99.90;;;;;;5053777;28;20533;-53
2024/03/05 12:05:23;;;;;;;33.00;13.13;;;9.90;99.90;;;;;;5053767;28;20393;-54
2024/03/05 12:08:01;;;;;;;31.30;14.48;;;9.80;99.90;;;;;;5052253;28;20494;-53
2024/03/05 12:10:31;;;;;;;38.95;13.93;;;9.70;99.90;;;;;;5053500;28;20048;-55
2024/03/05 12:13:01;;;;;;;31.95;14.20;;;9.70;99.90;;;;;;5034900;28;20385;-53
2024/03/05 12:15:34;;;;;;;26.80;12.23;;;9.70;99.90;;;;;;5032780;28;20056;-55
2024/03/05 12:18:10;;;;;;;24.65;12.02;;;9.60;99.90;;;;;;5032107;28;20017;-55
2024/03/05 12:20:36;;;;;;;28.15;12.98;;;9.60;99.90;;;;;;5030722;28;20080;-54
2024/03/05 12:23:03;;;;;;;35.13;12.98;;;9.60;99.90;;;;;;5031431;28;20033;-39
2024/03/05 12:25:28;;;;;;;24.33;11.75;;;9.60;99.90;;;;;;5031417;28;20022;-39
2024/03/05 12:27:55;;;;;;;26.73;12.35;;;9.70;99.90;;;;;;5032130;28;20446;-40
2024/03/05 12:30:21;;;;;;;24.10;12.20;;;9.80;99.90;;;;;;5031068;28;20021;-41
2024/03/05 12:32:54;;;;;;;24.58;12.27;;;9.80;99.90;;;;;;5031174;28;20049;-38
2024/03/05 12:35:23;;;;;;;23.98;10.25;;;9.80;99.90;;;;;;5035784;28;20056;-41
2024/03/05 12:37:50;;;;;;;24.73;12.38;;;9.70;99.90;;;;;;5050823;28;20029;-37
2024/03/05 12:40:21;;;;;;;29.77;12.43;;;9.80;99.90;;;;;;5050917;28;20029;-37
2024/03/05 12:42:51;;;;;;;22.83;11.07;;;9.80;99.90;;;;;;5051008;28;20473;-37
2024/03/05 12:45:21;;;;;;;26.25;11.73;;;9.80;99.90;;;;;;5042800;28;20108;-38
2024/03/05 12:47:59;;;;;;;30.42;11.95;;;9.80;99.90;;;;;;5031185;28;20044;-39
2024/03/05 12:50:24;;;;;;;25.85;11.75;;;10.00;99.90;;;;;;5030738;28;20401;-38
2024/03/05 12:53:00;;;;;;;22.23;10.20;;;10.00;99.90;;;;;;5030893;28;20022;-45
2024/03/05 12:55:30;;;;;;;22.10;10.82;;;10.10;99.90;;;;;;5030871;28;20156;-44